sensor_id;sensor_type;location;lat;lon;timestamp;pressure;altitude;pressure_sealevel;temperature;humidity
9059;BME280;4564;42.034;25.834;2023-04-24T00:01:20;100114.41;;;10.16;90.68
9059;BME280;4564;42.034;25.834;2023-04-24T00:03:46;100106.94;;;10.18;90.65
9059;BME280;4564;42.034;25.834;2023-04-24T00:06:13;100106.63;;;10.13;90.53
9059;BME280;4564;42.034;25.834;2023-04-24T00:08:42;100110.38;;;10.12;90.62
9059;BME280;4564;42.034;25.834;2023-04-24T00:11:10;100104.94;;;10.12;90.81
9059;BME280;4564;42.034;25.834;2023-04-24T00:13:37;100107.56;;;10.05;91.12
9059;BME280;4564;42.034;25.834;2023-04-24T00:16:03;100102.41;;;10.10;91.22
9059;BME280;4564;42.034;25.834;2023-04-24T00:18:30;100113.19;;;10.04;90.93
9059;BME280;4564;42.034;25.834;2023-04-24T00:20:57;100108.53;;;9.98;91.48
9059;BME280;4564;42.034;25.834;2023-04-24T00:23:24;100121.41;;;9.96;92.32
9059;BME280;4564;42.034;25.834;2023-04-24T00:25:50;100120.09;;;10.06;92.20
9059;BME280;4564;42.034;25.834;2023-04-24T00:28:18;100121.69;;;10.01;92.00
9059;BME280;4564;42.034;25.834;2023-04-24T00:30:45;100120.75;;;9.94;92.48
9059;BME280;4564;42.034;25.834;2023-04-24T00:33:11;100109.28;;;9.92;93.11
9059;BME280;4564;42.034;25.834;2023-04-24T00:35:38;100126.56;;;9.91;93.07
9059;BME280;4564;42.034;25.834;2023-04-24T00:38:05;100112.16;;;9.90;93.00
9059;BME280;4564;42.034;25.834;2023-04-24T00:40:31;100112.63;;;9.94;93.56
9059;BME280;4564;42.034;25.834;2023-04-24T00:42:58;100107.97;;;9.88;93.07
9059;BME280;4564;42.034;25.834;2023-04-24T00:45:26;100105.25;;;9.88;93.67
9059;BME280;4564;42.034;25.834;2023-04-24T00:47:53;100107.50;;;9.84;93.69
9059;BME280;4564;42.034;25.834;2023-04-24T00:50:20;100102.06;;;9.84;93.81
9059;BME280;4564;42.034;25.834;2023-04-24T00:52:47;100099.25;;;9.78;94.32
9059;BME280;4564;42.034;25.834;2023-04-24T00:55:14;100096.75;;;9.76;94.23
9059;BME280;4564;42.034;25.834;2023-04-24T00:57:40;100096.19;;;9.66;95.14
9059;BME280;4564;42.034;25.834;2023-04-24T01:00:07;100097.69;;;9.68;95.61
9059;BME280;4564;42.034;25.834;2023-04-24T01:02:38;100099.72;;;9.66;95.47
9059;BME280;4564;42.034;25.834;2023-04-24T01:05:09;100103.00;;;9.62;95.76
9059;BME280;4564;42.034;25.834;2023-04-24T01:07:36;100097.28;;;9.57;95.56
9059;BME280;4564;42.034;25.834;2023-04-24T01:10:05;100093.16;;;9.46;96.89
9059;BME280;4564;42.034;25.834;2023-04-24T01:12:32;100091.47;;;9.45;96.99
9059;BME280;4564;42.034;25.834;2023-04-24T01:14:58;100083.47;;;9.52;97.10
9059;BME280;4564;42.034;25.834;2023-04-24T01:17:25;100089.63;;;9.46;97.52
9059;BME280;4564;42.034;25.834;2023-04-24T01:19:53;100085.22;;;9.45;97.45
9059;BME280;4564;42.034;25.834;2023-04-24T01:22:23;100081.03;;;9.42;97.88
9059;BME280;4564;42.034;25.834;2023-04-24T01:24:50;100080.94;;;9.36;98.32
9059;BME280;4564;42.034;25.834;2023-04-24T01:27:16;100076.75;;;9.33;98.35
9059;BME280;4564;42.034;25.834;2023-04-24T01:29:43;100077.09;;;9.30;98.55
9059;BME280;4564;42.034;25.834;2023-04-24T01:32:09;100074.09;;;9.25;99.12
9059;BME280;4564;42.034;25.834;2023-04-24T01:34:36;100071.78;;;9.22;99.24
9059;BME280;4564;42.034;25.834;2023-04-24T01:37:03;100067.09;;;9.16;99.76
9059;BME280;4564;42.034;25.834;2023-04-24T01:39:31;100068.41;;;9.20;99.59
9059;BME280;4564;42.034;25.834;2023-04-24T01:41:59;100063.44;;;9.09;100.00
9059;BME280;4564;42.034;25.834;2023-04-24T01:44:25;100062.56;;;8.94;100.00
9059;BME280;4564;42.034;25.834;2023-04-24T01:46:52;100058.88;;;8.87;100.00
9059;BME280;4564;42.034;25.834;2023-04-24T01:49:19;100066.81;;;8.88;100.00
9059;BME280;4564;42.034;25.834;2023-04-24T01:51:45;100065.56;;;8.76;100.00
9059;BME280;4564;42.034;25.834;2023-04-24T01:54:12;100075.63;;;8.67;100.00
9059;BME280;4564;42.034;25.834;2023-04-24T01:56:41;100071.31;;;8.58;100.00
9059;BME280;4564;42.034;25.834;2023-04-24T01:59:08;100073.03;;;8.51;100.00
9059;BME280;4564;42.034;25.834;2023-04-24T02:01:36;100071.66;;;8.55;100.00
9059;BME280;4564;42.034;25.834;2023-04-24T02:04:02;100072.31;;;8.57;100.00
9059;BME280;4564;42.034;25.834;2023-04-24T02:06:29;100064.41;;;8.48;100.00
9059;BME280;4564;42.034;25.834;2023-04-24T02:08:56;100069.78;;;8.56;100.00
9059;BME280;4564;42.034;25.834;2023-04-24T02:11:23;100063.22;;;8.50;100.00
9059;BME280;4564;42.034;25.834;2023-04-24T02:13:51;100066.91;;;8.57;100.00
9059;BME280;4564;42.034;25.834;2023-04-24T02:16:18;100068.06;;;8.63;100.00
9059;BME280;4564;42.034;25.834;2023-04-24T02:18:44;100063.53;;;8.55;100.00
9059;BME280;4564;42.034;25.834;2023-04-24T02:21:13;100068.94;;;8.55;100.00
9059;BME280;4564;42.034;25.834;2023-04-24T02:23:40;100064.50;;;8.62;100.00
9059;BME280;4564;42.034;25.834;2023-04-24T02:26:07;100062.03;;;8.53;100.00
9059;BME280;4564;42.034;25.834;2023-04-24T02:28:33;100068.63;;;8.50;100.00
9059;BME280;4564;42.034;25.834;2023-04-24T02:31:01;100062.22;;;8.51;100.00
9059;BME280;4564;42.034;25.834;2023-04-24T02:33:28;100067.03;;;8.41;100.00
9059;BME280;4564;42.034;25.834;2023-04-24T02:35:54;100069.03;;;8.39;100.00
9059;BME280;4564;42.034;25.834;2023-04-24T02:38:22;100063.63;;;8.39;100.00
9059;BME280;4564;42.034;25.834;2023-04-24T02:40:48;100078.84;;;8.40;100.00
9059;BME280;4564;42.034;25.834;2023-04-24T02:43:15;100073.28;;;8.41;100.00
9059;BME280;4564;42.034;25.834;2023-04-24T02:45:42;100068.03;;;8.40;100.00
9059;BME280;4564;42.034;25.834;2023-04-24T02:48:10;100074.28;;;8.40;100.00
9059;BME280;4564;42.034;25.834;2023-04-24T02:50:36;100079.88;;;8.39;100.00
9059;BME280;4564;42.034;25.834;2023-04-24T02:53:03;100083.88;;;8.43;100.00
9059;BME280;4564;42.034;25.834;2023-04-24T02:55:29;100078.97;;;8.47;100.00
9059;BME280;4564;42.034;25.834;2023-04-24T02:57:56;100078.47;;;8.43;100.00
9059;BME280;4564;42.034;25.834;2023-04-24T03:00:23;100083.59;;;8.38;100.00
9059;BME280;4564;42.034;25.834;2023-04-24T03:02:49;100081.59;;;8.32;100.00
9059;BME280;4564;42.034;25.834;2023-04-24T03:05:17;100081.59;;;8.32;100.00
9059;BME280;4564;42.034;25.834;2023-04-24T03:07:44;100084.50;;;8.30;100.00
9059;BME280;4564;42.034;25.834;2023-04-24T03:10:11;100085.34;;;8.31;100.00
9059;BME280;4564;42.034;25.834;2023-04-24T03:12:38;100083.28;;;8.33;100.00
9059;BME280;4564;42.034;25.834;2023-04-24T03:15:04;100077.22;;;8.31;100.00
9059;BME280;4564;42.034;25.834;2023-04-24T03:17:31;100077.53;;;8.28;100.00
9059;BME280;4564;42.034;25.834;2023-04-24T03:19:58;100086.00;;;8.25;100.00
9059;BME280;4564;42.034;25.834;2023-04-24T03:22:26;100079.59;;;8.26;100.00
9059;BME280;4564;42.034;25.834;2023-04-24T03:24:52;100070.84;;;8.16;100.00
9059;BME280;4564;42.034;25.834;2023-04-24T03:27:19;100073.84;;;8.21;100.00
9059;BME280;4564;42.034;25.834;2023-04-24T03:29:46;100076.75;;;8.19;100.00
9059;BME280;4564;42.034;25.834;2023-04-24T03:32:13;100082.81;;;8.21;100.00
9059;BME280;4564;42.034;25.834;2023-04-24T03:34:39;100084.31;;;8.24;100.00
9059;BME280;4564;42.034;25.834;2023-04-24T03:37:06;100080.59;;;8.25;100.00
9059;BME280;4564;42.034;25.834;2023-04-24T03:39:34;100090.53;;;8.32;100.00
9059;BME280;4564;42.034;25.834;2023-04-24T03:42:01;100094.06;;;8.41;100.00
9059;BME280;4564;42.034;25.834;2023-04-24T03:44:27;100097.38;;;8.51;100.00
9059;BME280;4564;42.034;25.834;2023-04-24T03:46:54;100101.09;;;8.50;100.00
9059;BME280;4564;42.034;25.834;2023-04-24T03:49:20;100093.66;;;8.52;100.00
9059;BME280;4564;42.034;25.834;2023-04-24T03:51:47;100081.63;;;8.55;100.00
9059;BME280;4564;42.034;25.834;2023-04-24T03:54:14;100082.41;;;8.63;100.00
9059;BME280;4564;42.034;25.834;2023-04-24T03:56:41;100078.63;;;8.72;100.00
9059;BME280;4564;42.034;25.834;2023-04-24T03:59:08;100076.59;;;8.74;100.00
9059;BME280;4564;42.034;25.834;2023-04-24T04:01:35;100082.00;;;8.74;100.00
9059;BME280;4564;42.034;25.834;2023-04-24T04:04:02;100084.63;;;8.82;100.00
9059;BME280;4564;42.034;25.834;2023-04-24T04:06:29;100085.94;;;8.87;100.00
9059;BME280;4564;42.034;25.834;2023-04-24T04:08:56;100099.75;;;8.92;100.00
9059;BME280;4564;42.034;25.834;2023-04-24T04:11:22;100098.75;;;8.93;100.00
9059;BME280;4564;42.034;25.834;2023-04-24T04:13:50;100104.41;;;9.06;100.00
9059;BME280;4564;42.034;25.834;2023-04-24T04:16:17;100093.88;;;9.11;100.00
9059;BME280;4564;42.034;25.834;2023-04-24T04:18:44;100095.84;;;9.17;100.00
9059;BME280;4564;42.034;25.834;2023-04-24T04:21:10;100099.69;;;9.22;100.00
9059;BME280;4564;42.034;25.834;2023-04-24T04:23:37;100098.47;;;9.25;99.32
9059;BME280;4564;42.034;25.834;2023-04-24T04:26:05;100102.03;;;9.40;99.00
9059;BME280;4564;42.034;25.834;2023-04-24T04:28:31;100107.09;;;9.43;98.69
9059;BME280;4564;42.034;25.834;2023-04-24T04:30:59;100110.44;;;9.45;98.70
9059;BME280;4564;42.034;25.834;2023-04-24T04:33:26;100116.63;;;9.54;98.26
9059;BME280;4564;42.034;25.834;2023-04-24T04:35:53;100118.69;;;9.66;97.93
9059;BME280;4564;42.034;25.834;2023-04-24T04:38:21;100132.06;;;9.83;96.53
9059;BME280;4564;42.034;25.834;2023-04-24T04:40:48;100117.69;;;9.97;96.71
9059;BME280;4564;42.034;25.834;2023-04-24T04:43:15;100116.94;;;10.18;95.22
9059;BME280;4564;42.034;25.834;2023-04-24T04:45:41;100117.94;;;10.31;94.71
9059;BME280;4564;42.034;25.834;2023-04-24T04:48:09;100124.25;;;10.53;94.00
9059;BME280;4564;42.034;25.834;2023-04-24T04:50:38;100107.81;;;10.76;93.22
9059;BME280;4564;42.034;25.834;2023-04-24T04:53:05;100110.50;;;11.18;90.29
9059;BME280;4564;42.034;25.834;2023-04-24T04:55:32;100109.38;;;11.62;88.12
9059;BME280;4564;42.034;25.834;2023-04-24T04:57:58;100111.25;;;11.61;86.41
9059;BME280;4564;42.034;25.834;2023-04-24T05:00:25;100116.28;;;11.86;87.61
9059;BME280;4564;42.034;25.834;2023-04-24T05:02:52;100121.50;;;12.28;84.01
9059;BME280;4564;42.034;25.834;2023-04-24T05:05:20;100124.00;;;12.77;83.92
9059;BME280;4564;42.034;25.834;2023-04-24T05:07:47;100121.34;;;13.50;79.54
9059;BME280;4564;42.034;25.834;2023-04-24T05:10:14;100127.81;;;14.59;75.09
9059;BME280;4564;42.034;25.834;2023-04-24T05:12:41;100120.31;;;15.48;70.25
9059;BME280;4564;42.034;25.834;2023-04-24T05:15:07;100126.13;;;16.02;68.59
9059;BME280;4564;42.034;25.834;2023-04-24T05:17:34;100131.53;;;16.26;66.98
9059;BME280;4564;42.034;25.834;2023-04-24T05:20:01;100132.41;;;17.46;64.33
9059;BME280;4564;42.034;25.834;2023-04-24T05:22:29;100134.25;;;17.87;61.02
9059;BME280;4564;42.034;25.834;2023-04-24T05:24:56;100129.91;;;18.38;60.15
9059;BME280;4564;42.034;25.834;2023-04-24T05:27:23;100131.41;;;19.92;55.09
9059;BME280;4564;42.034;25.834;2023-04-24T05:29:50;100135.13;;;20.80;51.93
9059;BME280;4564;42.034;25.834;2023-04-24T05:32:17;100138.78;;;20.64;50.76
9059;BME280;4564;42.034;25.834;2023-04-24T05:34:43;100134.81;;;20.16;50.88
9059;BME280;4564;42.034;25.834;2023-04-24T05:37:10;100134.78;;;20.98;49.84
9059;BME280;4564;42.034;25.834;2023-04-24T05:39:38;100141.78;;;21.32;48.92
9059;BME280;4564;42.034;25.834;2023-04-24T05:42:06;100139.31;;;20.22;49.71
9059;BME280;4564;42.034;25.834;2023-04-24T05:44:33;100142.41;;;20.09;50.69
9059;BME280;4564;42.034;25.834;2023-04-24T05:47:00;100127.47;;;20.87;50.02
9059;BME280;4564;42.034;25.834;2023-04-24T05:49:27;100135.81;;;21.77;48.43
9059;BME280;4564;42.034;25.834;2023-04-24T05:51:53;100144.53;;;22.38;45.35
9059;BME280;4564;42.034;25.834;2023-04-24T05:54:20;100143.88;;;21.20;49.19
9059;BME280;4564;42.034;25.834;2023-04-24T05:56:48;100144.94;;;22.15;47.11
9059;BME280;4564;42.034;25.834;2023-04-24T05:59:15;100145.09;;;22.97;45.40
9059;BME280;4564;42.034;25.834;2023-04-24T06:01:42;100145.38;;;23.06;44.64
9059;BME280;4564;42.034;25.834;2023-04-24T06:04:09;100141.50;;;22.97;44.69
9059;BME280;4564;42.034;25.834;2023-04-24T06:06:36;100141.59;;;23.42;43.89
9059;BME280;4564;42.034;25.834;2023-04-24T06:09:02;100136.63;;;23.95;41.59
9059;BME280;4564;42.034;25.834;2023-04-24T06:11:30;100133.56;;;23.87;42.43
9059;BME280;4564;42.034;25.834;2023-04-24T06:13:58;100133.53;;;24.17;41.29
9059;BME280;4564;42.034;25.834;2023-04-24T06:16:25;100131.81;;;24.46;42.64
9059;BME280;4564;42.034;25.834;2023-04-24T06:18:51;100134.44;;;24.82;40.76
9059;BME280;4564;42.034;25.834;2023-04-24T06:21:18;100133.28;;;24.98;40.26
9059;BME280;4564;42.034;25.834;2023-04-24T06:23:45;100128.22;;;25.05;39.91
9059;BME280;4564;42.034;25.834;2023-04-24T06:26:12;100135.28;;;24.82;38.79
9059;BME280;4564;42.034;25.834;2023-04-24T06:28:39;100136.25;;;25.50;38.93
9059;BME280;4564;42.034;25.834;2023-04-24T06:31:07;100134.16;;;26.05;38.47
9059;BME280;4564;42.034;25.834;2023-04-24T06:33:33;100137.06;;;26.19;37.97
9059;BME280;4564;42.034;25.834;2023-04-24T06:36:00;100127.63;;;25.13;39.23
9059;BME280;4564;42.034;25.834;2023-04-24T06:38:26;100130.59;;;25.66;37.86
9059;BME280;4564;42.034;25.834;2023-04-24T06:40:54;100134.28;;;25.17;38.32
9059;BME280;4564;42.034;25.834;2023-04-24T06:43:21;100133.31;;;24.93;39.84
9059;BME280;4564;42.034;25.834;2023-04-24T06:45:48;100132.31;;;25.62;38.86
9059;BME280;4564;42.034;25.834;2023-04-24T06:48:15;100123.47;;;25.88;37.07
9059;BME280;4564;42.034;25.834;2023-04-24T06:50:42;100124.44;;;26.55;37.06
9059;BME280;4564;42.034;25.834;2023-04-24T06:53:09;100132.13;;;26.63;35.42
9059;BME280;4564;42.034;25.834;2023-04-24T06:55:37;100124.94;;;26.81;36.34
9059;BME280;4564;42.034;25.834;2023-04-24T06:58:04;100123.03;;;27.00;35.55
9059;BME280;4564;42.034;25.834;2023-04-24T07:00:31;100122.97;;;26.10;36.08
9059;BME280;4564;42.034;25.834;2023-04-24T07:02:57;100119.53;;;26.18;38.35
9059;BME280;4564;42.034;25.834;2023-04-24T07:05:26;100121.53;;;26.42;38.00
9059;BME280;4564;42.034;25.834;2023-04-24T07:07:53;100119.28;;;26.44;37.14
9059;BME280;4564;42.034;25.834;2023-04-24T07:10:19;100131.03;;;26.83;37.33
9059;BME280;4564;42.034;25.834;2023-04-24T07:12:46;100123.81;;;26.82;36.21
9059;BME280;4564;42.034;25.834;2023-04-24T07:15:13;100127.47;;;27.39;34.44
9059;BME280;4564;42.034;25.834;2023-04-24T07:17:40;100125.97;;;26.90;35.30
9059;BME280;4564;42.034;25.834;2023-04-24T07:20:09;100118.69;;;27.50;34.39
9059;BME280;4564;42.034;25.834;2023-04-24T07:22:37;100121.81;;;26.88;35.18
9059;BME280;4564;42.034;25.834;2023-04-24T07:25:04;100121.00;;;27.06;34.31
9059;BME280;4564;42.034;25.834;2023-04-24T07:27:30;100116.84;;;27.22;34.14
9059;BME280;4564;42.034;25.834;2023-04-24T07:29:57;100115.75;;;27.04;35.00
9059;BME280;4564;42.034;25.834;2023-04-24T07:32:24;100113.56;;;26.78;35.23
9059;BME280;4564;42.034;25.834;2023-04-24T07:34:50;100105.19;;;27.20;35.87
9059;BME280;4564;42.034;25.834;2023-04-24T07:37:17;100102.91;;;27.41;36.13
9059;BME280;4564;42.034;25.834;2023-04-24T07:39:45;100103.97;;;27.45;33.95
9059;BME280;4564;42.034;25.834;2023-04-24T07:42:12;100105.22;;;26.06;36.19
9059;BME280;4564;42.034;25.834;2023-04-24T07:44:38;100104.31;;;26.40;36.39
9059;BME280;4564;42.034;25.834;2023-04-24T07:47:05;100108.66;;;26.22;38.09
9059;BME280;4564;42.034;25.834;2023-04-24T07:49:32;100098.09;;;25.95;40.11
9059;BME280;4564;42.034;25.834;2023-04-24T07:52:00;100104.84;;;26.13;36.40
9059;BME280;4564;42.034;25.834;2023-04-24T07:54:27;100098.88;;;25.72;37.02
9059;BME280;4564;42.034;25.834;2023-04-24T07:56:55;100096.06;;;24.40;42.09
9059;BME280;4564;42.034;25.834;2023-04-24T07:59:22;100101.97;;;24.18;42.55
9059;BME280;4564;42.034;25.834;2023-04-24T08:01:49;100092.56;;;23.83;45.32
9059;BME280;4564;42.034;25.834;2023-04-24T08:04:15;100095.88;;;23.25;43.71
9059;BME280;4564;42.034;25.834;2023-04-24T08:06:44;100104.09;;;22.84;45.51
9059;BME280;4564;42.034;25.834;2023-04-24T08:09:11;100106.06;;;22.32;46.32
9059;BME280;4564;42.034;25.834;2023-04-24T08:11:38;100103.34;;;22.42;48.10
9059;BME280;4564;42.034;25.834;2023-04-24T08:14:06;100101.19;;;22.54;46.95
9059;BME280;4564;42.034;25.834;2023-04-24T08:16:34;100110.56;;;22.48;46.66
9059;BME280;4564;42.034;25.834;2023-04-24T08:19:01;100105.25;;;22.36;47.34
9059;BME280;4564;42.034;25.834;2023-04-24T08:21:28;100095.31;;;21.93;47.43
9059;BME280;4564;42.034;25.834;2023-04-24T08:23:55;100097.22;;;21.51;48.96
9059;BME280;4564;42.034;25.834;2023-04-24T08:26:21;100098.34;;;21.23;50.17
9059;BME280;4564;42.034;25.834;2023-04-24T08:28:48;100083.84;;;21.11;51.56
9059;BME280;4564;42.034;25.834;2023-04-24T08:31:16;100076.25;;;20.96;51.98
9059;BME280;4564;42.034;25.834;2023-04-24T08:33:43;100076.00;;;21.24;52.77
9059;BME280;4564;42.034;25.834;2023-04-24T08:36:11;100065.66;;;21.42;53.95
9059;BME280;4564;42.034;25.834;2023-04-24T08:38:37;100067.34;;;21.85;52.83
9059;BME280;4564;42.034;25.834;2023-04-24T08:41:04;100065.09;;;21.82;49.77
9059;BME280;4564;42.034;25.834;2023-04-24T08:43:32;100061.91;;;21.95;51.75
9059;BME280;4564;42.034;25.834;2023-04-24T08:45:59;100059.72;;;21.60;49.98
9059;BME280;4564;42.034;25.834;2023-04-24T08:48:28;100051.06;;;20.87;52.98
9059;BME280;4564;42.034;25.834;2023-04-24T08:50:55;100059.38;;;20.66;53.58
9059;BME280;4564;42.034;25.834;2023-04-24T08:53:22;100054.47;;;21.21;54.04
9059;BME280;4564;42.034;25.834;2023-04-24T08:55:50;100054.44;;;21.53;50.67
9059;BME280;4564;42.034;25.834;2023-04-24T08:58:17;100047.41;;;21.35;51.09
9059;BME280;4564;42.034;25.834;2023-04-24T09:00:45;100041.94;;;21.14;52.72
9059;BME280;4564;42.034;25.834;2023-04-24T09:03:13;100038.88;;;21.10;52.75
9059;BME280;4564;42.034;25.834;2023-04-24T09:05:43;100036.94;;;20.84;53.98
9059;BME280;4564;42.034;25.834;2023-04-24T09:08:12;100031.81;;;20.66;53.00
9059;BME280;4564;42.034;25.834;2023-04-24T09:10:39;100032.53;;;20.56;54.14
9059;BME280;4564;42.034;25.834;2023-04-24T09:13:06;100036.13;;;20.57;52.88
9059;BME280;4564;42.034;25.834;2023-04-24T09:15:34;100036.19;;;20.62;54.94
9059;BME280;4564;42.034;25.834;2023-04-24T09:18:01;100037.84;;;20.63;53.98
9059;BME280;4564;42.034;25.834;2023-04-24T09:20:28;100034.97;;;20.52;52.96
9059;BME280;4564;42.034;25.834;2023-04-24T09:22:56;100030.09;;;20.60;53.28
9059;BME280;4564;42.034;25.834;2023-04-24T09:25:23;100026.75;;;20.58;53.20
9059;BME280;4564;42.034;25.834;2023-04-24T09:27:53;100030.81;;;20.77;53.59
9059;BME280;4564;42.034;25.834;2023-04-24T09:30:21;100019.63;;;20.88;54.29
9059;BME280;4564;42.034;25.834;2023-04-24T09:32:48;100017.44;;;20.90;52.95
9059;BME280;4564;42.034;25.834;2023-04-24T09:35:15;100013.25;;;20.56;52.95
9059;BME280;4564;42.034;25.834;2023-04-24T09:37:42;100013.63;;;20.21;55.22
9059;BME280;4564;42.034;25.834;2023-04-24T09:40:14;100010.28;;;20.41;54.37
9059;BME280;4564;42.034;25.834;2023-04-24T09:42:43;100012.06;;;20.30;54.54
9059;BME280;4564;42.034;25.834;2023-04-24T09:45:10;100003.13;;;20.18;55.43
9059;BME280;4564;42.034;25.834;2023-04-24T09:47:37;100002.25;;;20.34;53.51
9059;BME280;4564;42.034;25.834;2023-04-24T09:50:14;100001.53;;;20.44;53.88
9059;BME280;4564;42.034;25.834;2023-04-24T09:52:42;100004.34;;;20.49;53.90
9059;BME280;4564;42.034;25.834;2023-04-24T09:55:13;99999.16;;;20.58;54.27
9059;BME280;4564;42.034;25.834;2023-04-24T09:57:48;99997.09;;;20.70;52.64
9059;BME280;4564;42.034;25.834;2023-04-24T10:00:21;99993.47;;;20.96;54.46
9059;BME280;4564;42.034;25.834;2023-04-24T10:02:51;99989.84;;;20.90;55.32
9059;BME280;4564;42.034;25.834;2023-04-24T10:05:22;99983.09;;;20.76;51.66
9059;BME280;4564;42.034;25.834;2023-04-24T10:07:49;99980.59;;;20.48;52.09
9059;BME280;4564;42.034;25.834;2023-04-24T10:10:17;99979.00;;;20.30;52.57
9059;BME280;4564;42.034;25.834;2023-04-24T10:12:44;99987.44;;;20.19;51.87
9059;BME280;4564;42.034;25.834;2023-04-24T10:15:11;99981.94;;;19.97;52.59
9059;BME280;4564;42.034;25.834;2023-04-24T10:17:39;99978.72;;;20.05;53.51
9059;BME280;4564;42.034;25.834;2023-04-24T10:20:06;99981.91;;;20.19;53.77
9059;BME280;4564;42.034;25.834;2023-04-24T10:22:34;99970.19;;;20.28;51.66
9059;BME280;4564;42.034;25.834;2023-04-24T10:25:02;99968.38;;;20.17;52.76
9059;BME280;4564;42.034;25.834;2023-04-24T10:27:31;99969.59;;;20.26;55.19
9059;BME280;4564;42.034;25.834;2023-04-24T10:29:58;99964.56;;;20.18;55.15
9059;BME280;4564;42.034;25.834;2023-04-24T10:32:25;99961.75;;;20.13;53.90
9059;BME280;4564;42.034;25.834;2023-04-24T10:34:52;99961.91;;;20.28;55.09
9059;BME280;4564;42.034;25.834;2023-04-24T10:37:18;99952.41;;;20.19;54.99
9059;BME280;4564;42.034;25.834;2023-04-24T10:39:47;99946.09;;;20.40;54.35
9059;BME280;4564;42.034;25.834;2023-04-24T10:42:14;99949.41;;;20.42;54.42
9059;BME280;4564;42.034;25.834;2023-04-24T10:44:42;99953.97;;;20.59;53.05
9059;BME280;4564;42.034;25.834;2023-04-24T10:47:12;99960.38;;;20.37;54.17
9059;BME280;4564;42.034;25.834;2023-04-24T10:49:39;99957.22;;;20.29;53.21
9059;BME280;4564;42.034;25.834;2023-04-24T10:52:06;99954.38;;;20.19;53.24
9059;BME280;4564;42.034;25.834;2023-04-24T10:54:34;99942.81;;;20.22;54.52
9059;BME280;4564;42.034;25.834;2023-04-24T10:59:48;99942.00;;;20.48;54.39
9059;BME280;4564;42.034;25.834;2023-04-24T11:02:16;99937.31;;;20.48;55.06
9059;BME280;4564;42.034;25.834;2023-04-24T11:04:43;99933.78;;;20.53;53.85
9059;BME280;4564;42.034;25.834;2023-04-24T11:07:10;99935.59;;;20.69;55.34
9059;BME280;4564;42.034;25.834;2023-04-24T11:09:37;99921.50;;;20.66;53.17
9059;BME280;4564;42.034;25.834;2023-04-24T11:12:06;99924.50;;;20.64;54.34
9059;BME280;4564;42.034;25.834;2023-04-24T11:17:28;99916.44;;;20.89;54.88
9059;BME280;4564;42.034;25.834;2023-04-24T11:19:59;99918.50;;;21.04;54.28
9059;BME280;4564;42.034;25.834;2023-04-24T11:22:26;99927.75;;;20.88;54.49
9059;BME280;4564;42.034;25.834;2023-04-24T11:24:54;99917.28;;;20.90;54.87
9059;BME280;4564;42.034;25.834;2023-04-24T11:27:21;99915.03;;;20.82;56.80
9059;BME280;4564;42.034;25.834;2023-04-24T11:29:51;99920.44;;;21.04;56.01
9059;BME280;4564;42.034;25.834;2023-04-24T11:32:26;99915.78;;;21.09;54.54
9059;BME280;4564;42.034;25.834;2023-04-24T11:34:55;99915.75;;;21.04;55.26
9059;BME280;4564;42.034;25.834;2023-04-24T11:37:22;99905.16;;;20.91;54.10
9059;BME280;4564;42.034;25.834;2023-04-24T11:39:52;99906.38;;;20.73;54.62
9059;BME280;4564;42.034;25.834;2023-04-24T11:42:20;99900.00;;;20.68;55.23
9059;BME280;4564;42.034;25.834;2023-04-24T11:44:47;99890.91;;;20.67;56.83
9059;BME280;4564;42.034;25.834;2023-04-24T11:47:14;99897.50;;;20.66;57.44
9059;BME280;4564;42.034;25.834;2023-04-24T11:49:41;99882.97;;;20.76;56.31
9059;BME280;4564;42.034;25.834;2023-04-24T11:52:09;99888.63;;;20.96;55.26
9059;BME280;4564;42.034;25.834;2023-04-24T11:54:35;99875.56;;;20.81;55.98
9059;BME280;4564;42.034;25.834;2023-04-24T11:57:03;99876.69;;;20.85;55.69
9059;BME280;4564;42.034;25.834;2023-04-24T11:59:35;99874.91;;;21.06;55.85
9059;BME280;4564;42.034;25.834;2023-04-24T12:02:01;99872.69;;;21.03;55.06
9059;BME280;4564;42.034;25.834;2023-04-24T12:04:38;99859.66;;;20.93;55.62
9059;BME280;4564;42.034;25.834;2023-04-24T12:07:04;99858.88;;;21.03;56.27
9059;BME280;4564;42.034;25.834;2023-04-24T12:12:19;99839.53;;;20.98;55.55
9059;BME280;4564;42.034;25.834;2023-04-24T12:14:48;99830.59;;;21.23;56.06
9059;BME280;4564;42.034;25.834;2023-04-24T12:17:15;99833.19;;;21.50;55.73
9059;BME280;4564;42.034;25.834;2023-04-24T12:19:45;99842.66;;;21.59;54.33
9059;BME280;4564;42.034;25.834;2023-04-24T12:22:12;99826.56;;;21.46;54.42
9059;BME280;4564;42.034;25.834;2023-04-24T12:27:22;99821.03;;;21.46;53.54
9059;BME280;4564;42.034;25.834;2023-04-24T12:29:52;99811.09;;;21.50;54.24
9059;BME280;4564;42.034;25.834;2023-04-24T12:32:19;99806.44;;;21.60;54.48
9059;BME280;4564;42.034;25.834;2023-04-24T12:34:46;99813.91;;;21.65;54.93
9059;BME280;4564;42.034;25.834;2023-04-24T12:37:12;99802.34;;;21.68;54.15
9059;BME280;4564;42.034;25.834;2023-04-24T12:39:39;99805.94;;;21.63;54.68
9059;BME280;4564;42.034;25.834;2023-04-24T12:42:11;99800.94;;;21.60;53.84
9059;BME280;4564;42.034;25.834;2023-04-24T12:44:39;99795.44;;;21.70;53.43
9059;BME280;4564;42.034;25.834;2023-04-24T12:47:05;99793.56;;;21.86;53.29
9059;BME280;4564;42.034;25.834;2023-04-24T12:49:32;99786.88;;;21.82;51.70
9059;BME280;4564;42.034;25.834;2023-04-24T12:51:59;99778.00;;;21.60;52.32
9059;BME280;4564;42.034;25.834;2023-04-24T12:54:25;99768.03;;;21.49;52.75
9059;BME280;4564;42.034;25.834;2023-04-24T12:56:52;99765.84;;;21.51;53.09
9059;BME280;4564;42.034;25.834;2023-04-24T12:59:19;99764.38;;;21.33;52.35
9059;BME280;4564;42.034;25.834;2023-04-24T13:01:47;99755.25;;;21.22;52.82
9059;BME280;4564;42.034;25.834;2023-04-24T13:04:13;99759.56;;;21.08;54.29
9059;BME280;4564;42.034;25.834;2023-04-24T13:06:40;99755.78;;;21.14;53.33
9059;BME280;4564;42.034;25.834;2023-04-24T13:09:07;99753.25;;;21.13;53.14
9059;BME280;4564;42.034;25.834;2023-04-24T13:11:35;99749.09;;;21.05;53.62
9059;BME280;4564;42.034;25.834;2023-04-24T13:14:01;99744.88;;;20.92;54.41
9059;BME280;4564;42.034;25.834;2023-04-24T13:16:28;99746.00;;;20.97;54.36